Time;durP1;ratioP1;P1;durP2;ratioP2;P2;SDS_P1;SDS_P2;PMS_P1;PMS_P2;Temp;Humidity;BMP_temperature;BMP_pressure;BME280_temperature;BME280_humidity;BME280_pressure;Samples;Min_cycle;Max_cycle;Signal;HPM_P1;HPM_P2
2023/12/05 00:02:08;;;;;;;12.48;9.02;;;;;;;;;;5021693;28;20033;-71
2023/12/05 00:04:36;;;;;;;14.63;9.40;;;;;;;;;;5026935;28;20045;-71
2023/12/05 00:07:02;;;;;;;14.23;9.60;;;;;;;;;;5012173;28;20169;-71
2023/12/05 00:09:28;;;;;;;15.90;10.18;;;;;;;;;;4996892;28;20052;-71
2023/12/05 00:11:54;;;;;;;17.17;9.65;;;;;;;;;;5013077;28;20575;-71
2023/12/05 00:14:20;;;;;;;15.43;10.02;;;;;;;;;;5012102;28;20048;-71
2023/12/05 00:16:46;;;;;;;13.75;9.45;;;;;;;;;;5012889;28;20045;-72
2023/12/05 00:19:12;;;;;;;17.17;9.75;;;;;;;;;;5013370;28;20034;-71
2023/12/05 00:21:38;;;;;;;15.60;10.10;;;;;;;;;;4995814;28;20490;-71
2023/12/05 00:24:05;;;;;;;14.95;9.77;;;;;;;;;;5012929;28;20133;-71
2023/12/05 00:26:32;;;;;;;16.38;10.38;;;;;;;;;;4996639;28;20045;-71
2023/12/05 00:28:58;;;;;;;16.02;9.90;;;;;;;;;;5012987;28;20041;-71
2023/12/05 00:31:24;;;;;;;14.40;9.32;;;;;;;;;;5011883;28;20487;-71
2023/12/05 00:33:51;;;;;;;15.32;10.27;;;;;;;;;;5013244;28;20034;-71
2023/12/05 00:36:17;;;;;;;14.68;10.15;;;;;;;;;;5013002;28;20120;-71
2023/12/05 00:38:43;;;;;;;13.88;9.07;;;;;;;;;;5012863;28;20042;-71
2023/12/05 00:41:09;;;;;;;15.13;10.00;;;;;;;;;;5011757;28;20054;-71
2023/12/05 00:43:36;;;;;;;14.77;9.15;;;;;;;;;;5011657;28;20085;-71
2023/12/05 00:46:02;;;;;;;12.85;8.90;;;;;;;;;;5013082;28;20436;-71
2023/12/05 00:48:29;;;;;;;14.60;9.43;;;;;;;;;;5025069;28;20041;-72
2023/12/05 00:50:55;;;;;;;14.73;10.65;;;;;;;;;;5012278;28;20041;-71
2023/12/05 00:53:21;;;;;;;14.45;9.60;;;;;;;;;;5012793;28;20038;-71
2023/12/05 00:55:47;;;;;;;13.05;9.65;;;;;;;;;;5011696;28;20038;-71
2023/12/05 00:58:13;;;;;;;15.82;9.93;;;;;;;;;;5012115;28;20103;-71
2023/12/05 01:00:39;;;;;;;14.88;9.77;;;;;;;;;;5012600;28;20050;-72
2023/12/05 01:03:05;;;;;;;15.07;9.95;;;;;;;;;;4996588;28;20155;-71
2023/12/05 01:05:33;;;;;;;14.35;10.23;;;1.40;99.90;;;;;;5004728;28;20041;-72
2023/12/05 01:07:59;;;;;;;14.05;9.75;;;;;;;;;;5023417;28;20082;-71
2023/12/05 01:10:25;;;;;;;14.80;10.27;;;;;;;;;;5011242;28;20050;-71
2023/12/05 01:12:51;;;;;;;14.70;9.98;;;;;;;;;;5012674;28;20042;-71
2023/12/05 01:15:17;;;;;;;14.70;10.35;;;;;;;;;;5021581;28;20057;-71
2023/12/05 01:17:43;;;;;;;15.65;10.32;;;;;;;;;;5033054;28;20054;-71
2023/12/05 01:20:12;;;;;;;14.88;10.32;;;;;;;;;;5035106;28;20445;-72
2023/12/05 01:22:38;;;;;;;15.40;10.23;;;;;;;;;;5016061;28;20106;-71
2023/12/05 01:25:07;;;;;;;14.50;10.20;;;;;;;;;;5016315;28;20033;-71
2023/12/05 01:27:33;;;;;;;17.98;9.70;;;;;;;;;;5015267;28;20054;-72
2023/12/05 01:29:59;;;;;;;16.13;10.05;;;;;;;;;;5015941;28;20046;-72
2023/12/05 01:32:25;;;;;;;16.92;11.45;;;;;;;;;;5030876;28;20033;-72
2023/12/05 01:34:51;;;;;;;17.83;11.63;;;;;;;;;;5017847;28;20096;-72
2023/12/05 01:37:17;;;;;;;16.27;10.50;;;;;;;;;;4998479;28;20064;-71
2023/12/05 01:39:43;;;;;;;18.52;11.40;;;;;;;;;;5014729;28;20038;-71
2023/12/05 01:42:09;;;;;;;16.70;11.30;;;;;;;;;;5014650;28;20042;-72
2023/12/05 01:44:35;;;;;;;17.13;11.57;;;;;;;;;;4998705;28;20086;-72
2023/12/05 01:47:03;;;;;;;16.27;10.98;;;;;;;;;;5028507;28;20044;-71
2023/12/05 01:49:33;;;;;;;14.95;10.27;;;;;;;;;;5025054;28;20597;-71
2023/12/05 01:51:59;;;;;;;18.13;11.60;;;;;;;;;;4998474;28;20038;-72
2023/12/05 01:54:26;;;;;;;18.33;12.10;;;;;;;;;;5014979;28;20101;-71
2023/12/05 01:56:54;;;;;;;16.38;10.27;;;;;;;;;;5014480;28;20044;-71
2023/12/05 01:59:20;;;;;;;16.77;11.35;;;;;;;;;;5015667;28;20073;-72
2023/12/05 02:01:48;;;;;;;17.75;11.85;;;;;;;;;;5014605;28;20038;-72
2023/12/05 02:04:14;;;;;;;19.98;12.48;;;;;;;;;;5015590;28;20076;-72
2023/12/05 02:06:40;;;;;;;18.30;11.80;;;;;;;;;;5015363;28;20034;-71
2023/12/05 02:09:06;;;;;;;16.75;11.50;;;;;;;;;;4998865;28;20041;-71
2023/12/05 02:11:33;;;;;;;16.75;11.90;;;;;;;;;;5014115;28;20046;-71
2023/12/05 02:13:59;;;;;;;16.92;11.52;;;;;;;;;;5030457;28;20037;-72
2023/12/05 02:16:28;;;;;;;21.05;12.30;;;;;;;;;;5017564;28;20044;-72
2023/12/05 02:18:59;;;;;;;19.48;12.27;;;;;;;;;;5001657;28;20034;-71
2023/12/05 02:21:28;;;;;;;17.52;12.02;;;;;;;;;;5013123;28;20045;-71
2023/12/05 02:24:38;;;;;;;17.70;11.73;;;1.30;99.90;;;;;;5015738;28;20498;-72
2023/12/05 02:27:17;;;;;;;17.17;11.88;;;;;;;;;;5013012;28;20030;-72
2023/12/05 02:29:50;;;;;;;19.08;12.75;;;;;;;;;;5031706;28;20049;-71
2023/12/05 02:32:16;;;;;;;19.35;12.40;;;;;;;;;;5034599;28;20045;-72
2023/12/05 02:34:42;;;;;;;18.33;11.98;;;;;;;;;;5015425;28;20033;-72
2023/12/05 02:37:14;;;;;;;19.30;12.20;;;;;;;;;;5028616;28;20412;-72
2023/12/05 02:40:00;;;;;;;20.17;12.55;;;1.20;99.90;;;;;;5017103;28;20386;-72
2023/12/05 02:42:28;;;;;;;17.63;12.10;;;1.10;99.90;;;;;;5013797;28;20045;-72
2023/12/05 02:44:55;;;;;;;17.92;12.30;;;;;;;;;;5013749;28;20065;-72
2023/12/05 02:47:24;;;;;;;19.38;12.23;;;1.20;99.90;;;;;;4998393;28;20203;-72
2023/12/05 02:49:51;;;;;;;17.10;12.00;;;;;;;;;;5016672;28;20437;-72
2023/12/05 02:52:17;;;;;;;20.58;12.90;;;;;;;;;;5014325;28;20091;-72
2023/12/05 02:54:43;;;;;;;18.88;12.63;;;;;;;;;;4999183;28;20045;-72
2023/12/05 02:57:09;;;;;;;21.85;12.80;;;;;;;;;;5014512;28;20044;-72
2023/12/05 02:59:35;;;;;;;17.95;12.75;;;;;;;;;;5014569;28;20231;-72
2023/12/05 03:02:01;;;;;;;19.15;13.05;;;;;;;;;;5015594;28;20064;-72
2023/12/05 03:04:27;;;;;;;21.17;13.57;;;;;;;;;;5013909;28;20145;-72
2023/12/05 03:06:53;;;;;;;19.92;12.48;;;;;;;;;;5013385;28;20041;-72
2023/12/05 03:09:19;;;;;;;20.27;13.13;;;;;;;;;;4997046;28;20057;-72
2023/12/05 03:11:45;;;;;;;20.10;12.75;;;;;;;;;;5014132;28;20049;-72
2023/12/05 03:14:11;;;;;;;17.60;12.18;;;;;;;;;;5014538;28;20058;-72
2023/12/05 03:16:38;;;;;;;17.65;11.95;;;;;;;;;;4996537;28;20042;-72
2023/12/05 03:19:04;;;;;;;20.38;13.35;;;;;;;;;;5013026;28;20044;-72
2023/12/05 03:21:30;;;;;;;21.77;13.07;;;;;;;;;;4996640;28;20096;-72
2023/12/05 03:23:56;;;;;;;19.42;13.30;;;;;;;;;;5013803;28;20050;-72
2023/12/05 03:26:22;;;;;;;18.25;12.43;;;;;;;;;;5014116;28;20112;-72
2023/12/05 03:28:49;;;;;;;20.88;12.80;;;;;;;;;;5013929;28;20041;-72
2023/12/05 03:31:15;;;;;;;17.52;12.07;;;;;;;;;;4996594;28;20085;-71
2023/12/05 03:33:41;;;;;;;18.05;12.60;;;;;;;;;;5031912;28;20030;-72
2023/12/05 03:36:08;;;;;;;19.38;12.57;;;;;;;;;;5013958;28;20045;-72
2023/12/05 03:38:34;;;;;;;20.65;12.70;;;;;;;;;;5014702;28;20045;-72
2023/12/05 03:41:00;;;;;;;19.73;13.00;;;;;;;;;;4996433;28;20145;-72
2023/12/05 03:43:26;;;;;;;20.00;12.70;;;;;;;;;;5012489;28;20088;-72
2023/12/05 03:45:52;;;;;;;17.42;12.20;;;;;;;;;;5013675;28;20042;-72
2023/12/05 03:48:18;;;;;;;18.85;12.50;;;;;;;;;;5013567;28;20103;-72
2023/12/05 03:50:44;;;;;;;19.85;12.52;;;;;;;;;;5012645;28;20046;-72
2023/12/05 03:53:10;;;;;;;19.88;13.48;;;;;;;;;;5022606;28;20048;-72
2023/12/05 03:55:36;;;;;;;20.77;13.45;;;;;;;;;;5028908;28;20602;-72
2023/12/05 03:58:02;;;;;;;18.17;12.73;;;;;;;;;;5013984;28;20360;-71
2023/12/05 04:00:28;;;;;;;18.70;12.32;;;;;;;;;;4997216;28;20081;-72
2023/12/05 04:02:57;;;;;;;20.08;13.25;;;;;;;;;;5030216;28;20041;-72
2023/12/05 04:05:24;;;;;;;17.65;12.60;;;;;;;;;;5030142;28;20052;-71
2023/12/05 04:07:50;;;;;;;19.73;13.38;;;;;;;;;;5014008;28;20475;-72
2023/12/05 04:10:16;;;;;;;20.00;12.95;;;;;;;;;;5002697;28;20037;-72
2023/12/05 04:12:42;;;;;;;17.58;12.32;;;;;;;;;;5014771;28;20135;-72
2023/12/05 04:15:08;;;;;;;18.40;12.80;;;;;;;;;;5011909;28;20038;-72
2023/12/05 04:17:35;;;;;;;20.33;12.90;;;;;;;;;;5018457;28;20042;-72
2023/12/05 04:20:01;;;;;;;18.58;13.13;;;;;;;;;;5011813;28;20053;-72
2023/12/05 04:22:27;;;;;;;17.67;12.70;;;;;;;;;;5012071;28;20498;-73
2023/12/05 04:24:53;;;;;;;19.02;12.57;;;;;;;;;;5012933;28;20045;-72
2023/12/05 04:27:19;;;;;;;19.70;13.45;;;;;;;;;;5013038;28;20092;-72
2023/12/05 04:29:45;;;;;;;18.50;12.32;;;;;;;;;;5012678;28;20042;-72
2023/12/05 04:32:12;;;;;;;18.67;13.40;;;;;;;;;;4996769;28;20113;-72
2023/12/05 04:34:41;;;;;;;18.60;13.00;;;;;;;;;;4996504;28;20049;-72
2023/12/05 04:37:08;;;;;;;19.00;13.20;;;;;;;;;;5014181;28;20436;-72
2023/12/05 04:39:34;;;;;;;21.40;14.05;;;;;;;;;;5029848;28;20073;-72
2023/12/05 04:42:01;;;;;;;20.52;13.65;;;;;;;;;;5011481;28;20088;-72
2023/12/05 04:44:30;;;;;;;20.70;13.93;;;;;;;;;;5021889;28;20495;-72
2023/12/05 04:46:57;;;;;;;18.98;13.13;;;;;;;;;;5027370;28;20137;-72
2023/12/05 04:49:23;;;;;;;20.58;12.90;;;;;;;;;;5011662;28;20494;-72
2023/12/05 04:51:49;;;;;;;21.88;14.25;;;;;;;;;;4999320;28;20046;-72
2023/12/05 04:54:15;;;;;;;19.52;13.35;;;;;;;;;;5015946;28;20140;-72
2023/12/05 04:56:42;;;;;;;22.05;13.65;;;;;;;;;;5015483;28;20041;-72
2023/12/05 04:59:08;;;;;;;19.27;13.20;;;;;;;;;;5016178;28;20421;-72
2023/12/05 05:01:34;;;;;;;19.77;13.00;;;;;;;;;;5016559;28;20053;-72
2023/12/05 05:04:00;;;;;;;21.02;14.27;;;;;;;;;;5016139;28;20061;-72
2023/12/05 05:06:26;;;;;;;19.90;13.32;;;;;;;;;;5016721;28;20133;-72
2023/12/05 05:08:53;;;;;;;21.83;14.35;;;;;;;;;;4999242;28;20041;-72
2023/12/05 05:11:19;;;;;;;19.27;12.95;;;;;;;;;;5016198;28;20129;-72
2023/12/05 05:13:45;;;;;;;19.60;12.68;;;;;;;;;;5016771;28;20052;-72
2023/12/05 05:16:11;;;;;;;21.33;13.52;;;;;;;;;;5015192;28;20042;-72
2023/12/05 05:18:37;;;;;;;20.98;13.57;;;;;;;;;;5016242;28;20057;-72
2023/12/05 05:21:07;;;;;;;22.25;13.65;;;;;;;;;;4982670;28;20042;-72
2023/12/05 05:23:33;;;;;;;19.52;12.93;;;;;;;;;;5017631;28;20038;-72
2023/12/05 05:26:00;;;;;;;21.27;13.40;;;;;;;;;;5016073;28;20041;-72
2023/12/05 05:28:26;;;;;;;19.17;13.77;;;;;;;;;;5015293;28;20064;-72
2023/12/05 05:30:54;;;;;;;19.65;13.35;;;;;;;;;;5014841;28;20053;-72
2023/12/05 05:33:24;;;;;;;20.63;13.63;;;;;;;;;;5016675;28;20042;-71
2023/12/05 05:35:50;;;;;;;21.15;13.68;;;;;;;;;;5034763;28;20029;-71
2023/12/05 05:38:17;;;;;;;23.10;13.90;;;;;;;;;;5016380;28;20037;-72
2023/12/05 05:40:43;;;;;;;22.08;13.52;;;;;;;;;;5021367;28;20148;-72
2023/12/05 05:43:09;;;;;;;21.52;13.88;;;;;;;;;;5026327;28;20046;-72
2023/12/05 05:45:35;;;;;;;20.17;13.57;;;;;;;;;;5031845;28;20128;-72
2023/12/05 05:48:01;;;;;;;21.13;13.93;;;;;;;;;;5034591;28;20037;-72
2023/12/05 05:50:28;;;;;;;19.23;13.25;;;;;;;;;;5019161;28;20402;-73
2023/12/05 05:52:54;;;;;;;22.27;13.80;;;;;;;;;;4990778;28;20037;-72
2023/12/05 05:55:20;;;;;;;22.02;13.88;;;;;;;;;;5021364;28;20042;-72
2023/12/05 05:57:46;;;;;;;20.00;13.52;;;;;;;;;;5019651;28;20037;-72
2023/12/05 06:00:13;;;;;;;21.73;13.88;;;;;;;;;;5027121;28;20393;-72
2023/12/05 06:02:39;;;;;;;22.58;14.93;;;;;;;;;;5015227;28;20454;-72
2023/12/05 06:05:05;;;;;;;20.00;12.68;;;;;;;;;;5014543;28;20040;-72
2023/12/05 06:07:31;;;;;;;22.67;13.90;;;;;;;;;;5026697;28;20479;-72
2023/12/05 06:09:57;;;;;;;22.63;13.38;;;;;;;;;;5020695;28;20115;-73
2023/12/05 06:12:24;;;;;;;20.15;13.68;;;;;;;;;;5029683;28;20044;-72
2023/12/05 06:14:50;;;;;;;21.45;13.80;;;;;;;;;;5027870;28;20355;-72
2023/12/05 06:17:16;;;;;;;19.05;13.25;;;;;;;;;;5027961;28;20378;-72
2023/12/05 06:19:42;;;;;;;21.02;13.65;;;;;;;;;;5031841;28;20063;-72
2023/12/05 06:22:08;;;;;;;21.48;12.38;;;;;;;;;;5033276;28;20667;-72
2023/12/05 06:24:34;;;;;;;20.35;12.63;;;;;;;;;;5033254;28;20053;-72
2023/12/05 06:27:01;;;;;;;20.17;13.50;;;;;;;;;;5017153;28;20048;-72
2023/12/05 06:29:27;;;;;;;19.90;13.63;;;;;;;;;;5032945;28;20085;-72
2023/12/05 06:31:53;;;;;;;21.60;13.38;;;;;;;;;;5016589;28;20041;-72
2023/12/05 06:34:19;;;;;;;20.70;13.32;;;;;;;;;;5016786;28;20037;-72
2023/12/05 06:36:45;;;;;;;21.63;13.45;;;;;;;;;;5033201;28;20124;-72
2023/12/05 06:39:11;;;;;;;22.30;13.85;;;;;;;;;;5035686;28;20052;-72
2023/12/05 06:41:37;;;;;;;21.80;13.15;;;;;;;;;;5016091;28;20141;-72
2023/12/05 06:44:03;;;;;;;19.52;13.70;;;;;;;;;;5033265;28;20048;-72
2023/12/05 06:46:30;;;;;;;20.08;13.05;;;;;;;;;;5016692;28;20128;-72
2023/12/05 06:48:58;;;;;;;20.60;13.10;;;;;;;;;;5032766;28;20072;-72
2023/12/05 06:51:24;;;;;;;21.25;12.90;;;;;;;;;;5032670;28;20045;-72
2023/12/05 06:53:50;;;;;;;19.85;13.63;;;;;;;;;;5032774;28;20042;-72
2023/12/05 06:56:16;;;;;;;22.88;13.48;;;;;;;;;;5032753;28;20512;-72
2023/12/05 06:58:43;;;;;;;21.33;13.18;;;;;;;;;;5031550;28;20045;-72
2023/12/05 07:01:09;;;;;;;21.10;13.38;;;;;;;;;;5033345;28;20461;-72
2023/12/05 07:03:35;;;;;;;22.20;12.77;;;;;;;;;;5032909;28;20049;-72
2023/12/05 07:06:01;;;;;;;18.80;12.43;;;;;;;;;;5032860;28;20045;-72
2023/12/05 07:08:27;;;;;;;18.90;13.27;;;;;;;;;;5032995;28;20076;-73
2023/12/05 07:10:53;;;;;;;23.73;14.10;;;;;;;;;;5032697;28;20041;-72
2023/12/05 07:13:19;;;;;;;20.63;13.10;;;;;;;;;;5004887;28;20034;-72
2023/12/05 07:15:45;;;;;;;21.45;13.20;;;;;;;;;;4997016;28;20176;-72
2023/12/05 07:18:11;;;;;;;21.48;12.98;;;;;;;;;;5024895;28;20056;-72
2023/12/05 07:20:37;;;;;;;19.80;12.85;;;;;;;;;;5026484;28;20042;-72
2023/12/05 07:23:04;;;;;;;19.08;13.20;;;;;;;;;;5014004;28;20049;-72
2023/12/05 07:25:30;;;;;;;21.08;13.30;;;;;;;;;;5032366;28;20489;-72
2023/12/05 07:27:56;;;;;;;20.83;12.98;;;;;;;;;;5026787;28;20041;-72
2023/12/05 07:30:23;;;;;;;20.55;13.43;;;;;;;;;;5013239;28;20085;-72
2023/12/05 07:32:49;;;;;;;21.45;13.18;;;;;;;;;;5032625;28;20434;-72
2023/12/05 07:35:15;;;;;;;20.80;13.57;;;;;;;;;;5032262;28;20045;-71
2023/12/05 07:37:41;;;;;;;19.75;12.77;;;;;;;;;;5032182;28;20033;-71
2023/12/05 07:40:07;;;;;;;19.27;12.88;;;;;;;;;;4993766;28;20084;-72
2023/12/05 07:42:33;;;;;;;19.17;13.07;;;;;;;;;;4985014;28;20052;-72
2023/12/05 07:45:01;;;;;;;28.50;13.95;;;;;;;;;;5015719;28;20037;-72
2023/12/05 07:47:27;;;;;;;21.50;13.35;;;;;;;;;;5032184;28;20394;-72
2023/12/05 07:49:53;;;;;;;19.45;12.77;;;;;;;;;;5031909;28;20072;-72
2023/12/05 07:52:20;;;;;;;19.67;12.73;;;;;;;;;;5031900;28;20073;-72
2023/12/05 07:54:46;;;;;;;23.65;13.43;;;;;;;;;;5015583;28;20037;-72
2023/12/05 07:57:12;;;;;;;19.60;12.30;;;;;;;;;;5028597;28;20421;-72
2023/12/05 07:59:38;;;;;;;22.67;13.80;;;;;;;;;;5032258;28;20037;-71
2023/12/05 08:02:04;;;;;;;22.30;13.35;;;;;;;;;;5032136;28;20449;-72
2023/12/05 08:04:30;;;;;;;24.33;13.52;;;;;;;;;;5012340;28;20042;-72
2023/12/05 08:06:56;;;;;;;21.65;12.18;;;;;;;;;;5012137;28;20077;-72
2023/12/05 08:09:22;;;;;;;19.27;13.13;;;;;;;;;;5030699;28;20501;-72
2023/12/05 08:11:48;;;;;;;22.58;13.13;;;;;;;;;;5031447;28;20045;-72
2023/12/05 08:14:14;;;;;;;19.67;12.40;;;;;;;;;;5015113;28;20099;-72
2023/12/05 08:16:42;;;;;;;20.92;13.27;;;;;;;;;;5025348;28;20494;-72
2023/12/05 08:19:08;;;;;;;21.20;12.95;;;;;;;;;;5027895;28;20128;-72
2023/12/05 08:21:34;;;;;;;21.85;13.43;;;;;;;;;;5015111;28;20049;-72
2023/12/05 08:24:00;;;;;;;22.67;13.90;;;;;;;;;;5028130;28;20045;-72
2023/12/05 08:26:26;;;;;;;21.48;13.93;;;;;;;;;;5020323;28;20067;-72
2023/12/05 08:28:52;;;;;;;20.15;13.50;;;0.80;99.90;;;;;;5018095;28;20069;-72
2023/12/05 08:31:18;;;;;;;21.00;13.23;;;;;;;;;;5025981;28;20081;-72
2023/12/05 08:33:45;;;;;;;23.75;13.20;;;;;;;;;;5019371;28;20502;-72
2023/12/05 08:36:11;;;;;;;20.33;12.90;;;;;;;;;;5022469;28;20485;-72
2023/12/05 08:38:37;;;;;;;21.35;12.88;;;;;;;;;;5026885;28;20477;-72
2023/12/05 08:41:03;;;;;;;21.83;12.98;;;;;;;;;;5004017;28;20057;-72
2023/12/05 08:43:29;;;;;;;23.20;13.35;;;;;;;;;;5020320;28;20383;-72
2023/12/05 08:45:55;;;;;;;20.63;13.00;;;;;;;;;;5028867;28;20041;-72
2023/12/05 08:48:21;;;;;;;22.08;13.00;;;;;;;;;;5029579;28;20419;-72
2023/12/05 08:50:47;;;;;;;19.73;12.10;;;;;;;;;;5014710;28;20045;-72
2023/12/05 08:53:13;;;;;;;18.50;12.52;;;;;;;;;;5010480;28;20091;-72
2023/12/05 08:55:41;;;;;;;20.65;12.70;;;;;;;;;;5025903;28;20039;-72
2023/12/05 08:58:07;;;;;;;23.25;14.23;;;;;;;;;;5023234;28;20037;-72
2023/12/05 09:00:34;;;;;;;19.95;12.85;;;;;;;;;;5023808;28;20460;-72
2023/12/05 09:03:00;;;;;;;21.60;12.90;;;;;;;;;;5023856;28;20042;-72
2023/12/05 09:05:26;;;;;;;18.75;12.45;;;;;;;;;;5011294;28;20037;-72
2023/12/05 09:07:52;;;;;;;21.05;12.70;;;;;;;;;;5026519;28;20126;-71
2023/12/05 09:10:19;;;;;;;20.60;13.85;;;;;;;;;;5028940;28;20041;-71
2023/12/05 09:12:45;;;;;;;22.05;12.43;;;;;;;;;;5027848;28;20363;-71
2023/12/05 09:15:11;;;;;;;19.98;12.88;;;;;;;;;;5012804;28;20044;-72
2023/12/05 09:17:37;;;;;;;21.85;14.02;;;;;;;;;;5017550;28;20045;-71
2023/12/05 09:20:04;;;;;;;19.95;11.82;;;;;;;;;;5011667;28;20108;-72
2023/12/05 09:22:30;;;;;;;20.70;12.55;;;;;;;;;;5020068;28;20041;-71
2023/12/05 09:24:56;;;;;;;21.48;13.25;;;;;;;;;;5029145;28;20038;-71
2023/12/05 09:27:22;;;;;;;17.88;12.60;;;;;;;;;;5026842;28;20065;-71
2023/12/05 09:29:48;;;;;;;18.10;12.07;;;;;;;;;;5021292;28;20490;-71
2023/12/05 09:32:14;;;;;;;22.00;12.82;;;;;;;;;;5015641;28;20033;-71
2023/12/05 09:34:40;;;;;;;19.20;12.55;;;;;;;;;;5011534;28;20042;-71
2023/12/05 09:37:06;;;;;;;19.92;13.35;;;;;;;;;;5023959;28;20029;-71
2023/12/05 09:39:32;;;;;;;19.08;12.38;;;;;;;;;;5008751;28;20072;-71
2023/12/05 09:42:05;;;;;;;19.55;12.95;;;1.20;99.90;;;;;;5002659;28;20058;-71
2023/12/05 09:44:35;;;;;;;19.45;13.18;;;;;;;;;;5017039;28;20410;-71
2023/12/05 09:47:05;;;;;;;22.92;13.35;;;1.10;99.90;;;;;;5019962;28;20041;-71
2023/12/05 09:49:32;;;;;;;19.88;13.60;;;;;;;;;;5031845;28;20073;-71
2023/12/05 09:52:00;;;;;;;18.60;12.60;;;1.10;99.90;;;;;;5014519;28;20042;-70
2023/12/05 09:54:26;;;;;;;27.00;12.93;;;;;;;;;;5021272;28;20494;-74
2023/12/05 09:56:55;;;;;;;23.45;13.23;;;;;;;;;;4998181;28;20033;-71
2023/12/05 09:59:21;;;;;;;18.90;12.55;;;;;;;;;;5007584;28;20038;-72
2023/12/05 10:01:47;;;;;;;19.75;12.85;;;;;;;;;;5030417;28;20092;-70
2023/12/05 10:04:18;;;;;;;22.23;13.32;;;1.40;99.90;;;;;;5033162;28;20045;-71
2023/12/05 10:06:46;;;;;;;19.30;12.18;;;1.30;99.90;;;;;;5033771;28;20060;-71
2023/12/05 10:09:14;;;;;;;20.15;13.40;;;;;;;;;;5034004;28;21364;-71
2023/12/05 10:11:40;;;;;;;19.63;12.45;;;;;;;;;;5033740;28;20338;-71
2023/12/05 10:14:06;;;;;;;19.17;12.80;;;;;;;;;;5034813;28;20041;-70
2023/12/05 10:16:32;;;;;;;22.00;13.68;;;;;;;;;;5031000;28;20113;-71
2023/12/05 10:18:59;;;;;;;20.88;12.57;;;;;;;;;;5022920;28;20034;-71
2023/12/05 10:21:25;;;;;;;18.42;12.93;;;;;;;;;;5017530;28;20060;-71
2023/12/05 10:23:51;;;;;;;20.63;13.57;;;;;;;;;;5030810;28;20366;-71
2023/12/05 10:26:18;;;;;;;22.05;13.75;;;;;;;;;;5032641;28;20056;-71
2023/12/05 10:28:50;;;;;;;22.75;13.68;;;;;;;;;;5032193;28;20042;-70
2023/12/05 10:31:17;;;;;;;18.88;13.32;;;;;;;;;;5032471;28;20103;-71
2023/12/05 10:33:43;;;;;;;21.95;13.02;;;;;;;;;;5012547;28;20041;-70
2023/12/05 10:36:11;;;;;;;21.48;13.27;;;;;;;;;;5032765;28;20033;-70
2023/12/05 10:38:37;;;;;;;21.15;12.82;;;;;;;;;;5029801;28;20042;-70
2023/12/05 10:41:03;;;;;;;19.42;12.57;;;;;;;;;;5032183;28;20100;-70
2023/12/05 10:43:29;;;;;;;21.65;13.77;;;;;;;;;;5026583;28;20045;-70
2023/12/05 10:45:56;;;;;;;19.58;13.40;;;;;;;;;;5019515;28;20466;-70
2023/12/05 10:48:25;;;;;;;22.52;13.55;;;;;;;;;;5019305;28;20073;-71
2023/12/05 10:50:52;;;;;;;24.75;14.18;;;;;;;;;;5005765;28;20053;-71
2023/12/05 10:53:18;;;;;;;20.38;13.70;;;;;;;;;;5024161;28;20068;-71
2023/12/05 10:55:45;;;;;;;21.58;13.93;;;;;;;;;;5024983;28;20041;-70
2023/12/05 10:58:11;;;;;;;20.15;13.55;;;1.30;99.90;;;;;;5031533;28;20116;-70
2023/12/05 11:00:38;;;;;;;24.48;13.77;;;;;;;;;;5017729;28;20042;-70
2023/12/05 11:03:04;;;;;;;22.42;13.77;;;;;;;;;;5014665;28;20097;-71
2023/12/05 11:05:31;;;;;;;21.42;13.88;;;;;;;;;;5025212;28;20429;-71
2023/12/05 11:07:58;;;;;;;21.75;13.90;;;;;;;;;;5015669;28;20068;-71
2023/12/05 11:10:27;;;;;;;24.58;15.82;;;;;;;;;;5029100;28;20071;-71
2023/12/05 11:12:55;;;;;;;23.42;14.38;;;1.30;99.90;;;;;;5025475;28;20081;-71
2023/12/05 11:15:25;;;;;;;24.80;14.00;;;;;;;;;;5016890;28;20275;-71
2023/12/05 11:17:54;;;;;;;22.08;14.38;;;;;;;;;;5021518;28;20132;-71
2023/12/05 11:20:31;;;;;;;20.98;14.07;;;;;;;;;;5008150;28;20482;-71
2023/12/05 11:23:03;;;;;;;22.52;13.45;;;;;;;;;;5018949;28;20487;-72
2023/12/05 11:25:30;;;;;;;22.90;14.50;;;;;;;;;;5021867;28;20041;-71
2023/12/05 11:28:14;;;;;;;23.33;14.07;;;;;;;;;;5019794;28;20042;-71
2023/12/05 11:30:40;;;;;;;21.70;13.85;;;;;;;;;;5018361;28;20674;-70
2023/12/05 11:33:26;;;;;;;21.20;14.45;;;;;;;;;;5023033;28;20065;-70
2023/12/05 11:36:27;;;;;;;22.98;14.23;;;1.40;99.90;;;;;;5027061;28;20053;-70
2023/12/05 11:38:54;;;;;;;22.05;13.60;;;;;;;;;;5027633;28;20080;-70
2023/12/05 11:41:20;;;;;;;23.58;14.70;;;;;;;;;;5028319;28;20448;-70
2023/12/05 11:44:27;;;;;;;22.58;14.07;;;1.30;99.90;;;;;;5030560;28;20076;-70
2023/12/05 11:46:54;;;;;;;21.95;14.57;;;;;;;;;;5030186;28;20116;-69
2023/12/05 11:49:39;;;;;;;21.90;13.30;;;;;;;;;;5031537;28;20512;-70
2023/12/05 11:52:10;;;;;;;24.02;15.00;;;1.50;99.90;;;;;;5031264;28;20049;-70
2023/12/05 11:54:36;;;;;;;22.92;14.25;;;;;;;;;;5030880;28;20108;-69
2023/12/05 11:57:24;;;;;;;22.55;15.35;;;1.50;99.90;;;;;;5020363;28;20112;-69
2023/12/05 11:59:56;;;;;;;22.60;14.48;;;;;;;;;;5028283;28;20038;-69
2023/12/05 12:02:25;;;;;;;21.98;14.10;;;;;;;;;;5029141;28;20427;-69
2023/12/05 12:05:12;;;;;;;20.42;13.35;;;;;;;;;;5030176;28;20394;-69
2023/12/05 12:07:50;;;;;;;22.83;13.15;;;;;;;;;;5008212;28;20037;-70
2023/12/05 12:10:17;;;;;;;22.50;14.18;;;;;;;;;;5030126;28;20049;-69
2023/12/05 12:12:44;;;;;;;22.58;14.80;;;;;;;;;;5013076;28;20071;-68
2023/12/05 12:15:11;;;;;;;24.88;14.82;;;;;;;;;;5031201;28;20041;-68
2023/12/05 12:17:40;;;;;;;22.95;13.88;;;;;;;;;;5026999;28;20477;-69
2023/12/05 12:20:08;;;;;;;22.35;14.88;;;;;;;;;;5029813;28;20087;-68
2023/12/05 12:22:34;;;;;;;24.38;14.95;;;;;;;;;;5030781;28;20040;-68
2023/12/05 12:25:05;;;;;;;24.42;14.88;;;;;;;;;;5031003;28;20045;-68
2023/12/05 12:27:35;;;;;;;26.13;16.10;;;1.80;99.90;;;;;;5032283;28;20481;-68
2023/12/05 12:30:01;;;;;;;22.52;14.57;;;;;;;;;;5019922;28;20057;-68
2023/12/05 12:32:27;;;;;;;24.42;15.15;;;;;;;;;;5030494;28;20533;-68
2023/12/05 12:34:53;;;;;;;23.58;15.05;;;;;;;;;;5030364;28;20551;-68
2023/12/05 12:37:19;;;;;;;21.35;14.63;;;;;;;;;;5021404;28;20038;-68
2023/12/05 12:39:45;;;;;;;22.40;15.65;;;;;;;;;;5029921;28;20037;-68
2023/12/05 12:42:12;;;;;;;26.67;15.90;;;;;;;;;;4998908;28;20538;-68
2023/12/05 12:44:38;;;;;;;24.13;15.30;;;;;;;;;;5029509;28;20374;-69
2023/12/05 12:47:04;;;;;;;26.73;16.42;;;;;;;;;;5016189;28;20038;-69
2023/12/05 12:49:31;;;;;;;23.67;15.85;;;;;;;;;;5031454;28;20072;-69
2023/12/05 12:51:57;;;;;;;25.00;14.73;;;;;;;;;;5018952;28;20044;-69
2023/12/05 12:54:25;;;;;;;25.45;15.68;;;;;;;;;;5029224;28;20033;-69
2023/12/05 12:56:53;;;;;;;25.80;15.00;;;;;;;;;;5013847;28;20042;-69
2023/12/05 12:59:19;;;;;;;26.38;15.93;;;;;;;;;;5010580;28;20041;-69
2023/12/05 13:01:45;;;;;;;25.67;15.95;;;;;;;;;;5023765;28;20049;-69
2023/12/05 13:04:12;;;;;;;25.38;16.90;;;1.90;99.90;;;;;;5011712;28;20038;-69
2023/12/05 13:06:45;;;;;;;25.90;16.13;;;2.00;99.90;;;;;;5024543;28;20045;-68
2023/12/05 13:09:12;;;;;;;25.02;15.40;;;;;;;;;;5015423;28;20092;-68
2023/12/05 13:11:38;;;;;;;26.00;15.98;;;;;;;;;;5028146;28;20496;-68
2023/12/05 13:14:08;;;;;;;25.40;16.13;;;;;;;;;;5034758;28;20128;-68
2023/12/05 13:16:37;;;;;;;31.05;16.95;;;1.90;99.90;;;;;;5030012;28;20045;-68
2023/12/05 13:19:03;;;;;;;25.80;16.50;;;;;;;;;;5013232;28;20038;-68
2023/12/05 13:21:33;;;;;;;25.33;16.23;;;;;;;;;;5033343;28;20124;-68
2023/12/05 13:24:03;;;;;;;27.38;16.95;;;;;;;;;;5014680;28;20504;-68
2023/12/05 13:26:29;;;;;;;26.88;16.85;;;;;;;;;;5033478;28;20046;-68
2023/12/05 13:28:56;;;;;;;26.55;16.27;;;;;;;;;;5033521;28;20064;-69
2023/12/05 13:31:22;;;;;;;28.98;17.00;;;;;;;;;;5033860;28;20386;-68
2023/12/05 13:33:48;;;;;;;28.25;17.20;;;;;;;;;;5029917;28;20041;-69
2023/12/05 13:36:14;;;;;;;28.80;17.77;;;;;;;;;;5016909;28;20113;-69
2023/12/05 13:38:40;;;;;;;30.67;17.13;;;;;;;;;;5000910;28;20486;-69
2023/12/05 13:41:06;;;;;;;29.10;17.10;;;;;;;;;;5033039;28;20057;-69
2023/12/05 13:43:32;;;;;;;28.00;16.77;;;;;;;;;;5024153;28;20581;-69
2023/12/05 13:45:58;;;;;;;26.55;16.63;;;;;;;;;;5033732;28;20191;-69
2023/12/05 13:48:24;;;;;;;28.88;17.48;;;;;;;;;;5026706;28;20136;-70
2023/12/05 13:50:51;;;;;;;29.35;17.42;;;;;;;;;;5034309;28;20044;-69
2023/12/05 13:53:17;;;;;;;29.40;17.83;;;;;;;;;;5025181;28;20037;-69
2023/12/05 13:55:43;;;;;;;33.47;19.75;;;;;;;;;;4998416;28;20437;-70
2023/12/05 13:58:09;;;;;;;31.15;18.88;;;;;;;;;;5023076;28;20105;-69
2023/12/05 14:00:35;;;;;;;29.13;17.88;;;;;;;;;;5026908;28;20551;-69
2023/12/05 14:03:02;;;;;;;29.13;16.55;;;;;;;;;;4999532;28;20045;-69
2023/12/05 14:05:28;;;;;;;34.38;19.30;;;;;;;;;;5022887;28;20107;-69
2023/12/05 14:07:54;;;;;;;30.83;19.52;;;;;;;;;;5008184;28;20120;-69
2023/12/05 14:10:20;;;;;;;30.58;17.92;;;;;;;;;;5022404;28;20127;-70
2023/12/05 14:12:46;;;;;;;33.22;19.70;;;;;;;;;;5026350;28;20044;-70